createdAt,value
2022-09-07T00:01:57.913Z,1.90
2022-09-07T00:07:51.526Z,4.57
2022-09-07T00:13:46.901Z,1.40
2022-09-07T00:19:41.250Z,1.57
2022-09-07T00:25:38.634Z,2.00
2022-09-07T00:31:32.850Z,1.77
2022-09-07T00:37:27.620Z,5.20
2022-09-07T00:43:32.583Z,6.03
2022-09-07T00:49:26.233Z,1.90
2022-09-07T00:55:22.145Z,1.57
2022-09-07T01:01:16.053Z,1.80
2022-09-07T01:07:10.198Z,2.50
2022-09-07T01:13:04.964Z,2.47
2022-09-07T01:19:10.676Z,1.70
2022-09-07T01:25:10.134Z,3.90
2022-09-07T01:31:12.854Z,3.67
2022-09-07T01:37:15.744Z,3.33
2022-09-07T01:43:16.434Z,3.17
2022-09-07T01:49:18.524Z,2.00
2022-09-07T01:55:17.814Z,3.03
2022-09-07T02:01:14.111Z,2.43
2022-09-07T02:07:15.502Z,5.87
2022-09-07T02:13:14.743Z,3.93
2022-09-07T02:19:14.418Z,6.10
2022-09-07T02:25:12.221Z,2.90
2022-09-07T02:31:05.865Z,2.93
2022-09-07T02:37:02.641Z,3.10
2022-09-07T02:42:59.464Z,4.17
2022-09-07T02:49:01.970Z,3.00
2022-09-07T02:55:05.802Z,3.53
2022-09-07T03:01:07.848Z,5.73
2022-09-07T03:07:06.770Z,2.80
2022-09-07T03:13:00.197Z,5.33
2022-09-07T03:18:54.967Z,2.30
2022-09-07T03:24:48.447Z,2.80
2022-09-07T03:30:44.449Z,2.50
2022-09-07T03:36:39.414Z,5.97
2022-09-07T03:42:32.458Z,3.30
2022-09-07T03:48:25.920Z,5.00
2022-09-07T03:54:20.683Z,6.00
2022-09-07T04:00:14.875Z,4.73
2022-09-07T04:06:08.040Z,5.77
2022-09-07T04:12:02.899Z,3.60
2022-09-07T04:17:55.875Z,7.93
2022-09-07T04:23:50.055Z,4.30
2022-09-07T04:29:44.774Z,5.33
2022-09-07T04:35:38.132Z,3.87
2022-09-07T04:41:33.325Z,6.20
2022-09-07T04:47:30.576Z,5.70
2022-09-07T04:53:23.521Z,4.83
2022-09-07T04:59:16.514Z,6.53
2022-09-07T05:05:11.578Z,7.50
2022-09-07T05:11:05.067Z,8.03
2022-09-07T05:16:58.170Z,3.97
2022-09-07T05:22:59.795Z,4.70
2022-09-07T05:28:53.081Z,3.83
2022-09-07T05:34:48.558Z,3.33
2022-09-07T05:40:44.560Z,2.70
2022-09-07T05:46:37.574Z,3.83
2022-09-07T05:52:30.726Z,4.13
2022-09-07T05:58:25.439Z,4.40
2022-09-07T06:04:18.984Z,6.30
2022-09-07T06:16:27.404Z,5.80
2022-09-07T06:22:20.565Z,9.90
2022-09-07T06:28:13.567Z,10.53
2022-09-07T06:34:09.144Z,3.90
2022-09-07T06:40:02.671Z,6.20
2022-09-07T06:45:56.115Z,3.60
2022-09-07T06:51:51.078Z,9.37
2022-09-07T06:57:44.253Z,3.93
2022-09-07T07:03:37.830Z,5.30
2022-09-07T07:09:32.625Z,5.03
2022-09-07T07:15:27.812Z,4.30
2022-09-07T07:21:21.232Z,4.73
2022-09-07T07:27:15.999Z,3.50
2022-09-07T07:33:10.296Z,4.37
2022-09-07T07:39:05.900Z,4.43
2022-09-07T07:51:13.660Z,4.37
2022-09-07T07:57:07.280Z,4.57
2022-09-07T08:03:03.228Z,3.60
2022-09-07T08:08:57.422Z,3.50
2022-09-07T08:14:50.907Z,3.53
2022-09-07T08:20:45.420Z,6.70
2022-09-07T08:26:38.288Z,4.20
2022-09-07T08:32:31.569Z,8.83
2022-09-07T08:38:26.951Z,4.17
2022-09-07T08:44:24.576Z,5.93
2022-09-07T08:50:23.002Z,3.90
2022-09-07T08:56:22.760Z,6.33
2022-09-07T09:02:40.182Z,9.07
2022-09-07T09:08:44.574Z,4.30
2022-09-07T09:14:49.433Z,4.10
2022-09-07T09:20:49.897Z,13.80
2022-09-07T09:26:46.297Z,6.27
2022-09-07T09:32:42.598Z,4.93
2022-09-07T09:38:37.783Z,5.23
2022-09-07T09:44:35.669Z,5.77
2022-09-07T09:56:49.969Z,4.70
2022-09-07T10:08:59.845Z,7.83
2022-09-07T10:14:53.259Z,5.40
2022-09-07T10:20:46.780Z,5.40
2022-09-07T10:26:45.130Z,6.00
2022-09-07T10:32:56.503Z,8.80
2022-09-07T10:38:56.373Z,4.97
2022-09-07T10:45:01.502Z,5.40
2022-09-07T10:51:01.444Z,4.40
2022-09-07T10:57:10.592Z,5.17
2022-09-07T11:03:36.334Z,4.50
2022-09-07T11:09:48.123Z,7.23
2022-09-07T11:15:44.785Z,5.40
2022-09-07T11:21:59.776Z,3.90
2022-09-07T11:27:57.437Z,5.83
2022-09-07T11:40:21.916Z,4.20
2022-09-07T11:46:19.102Z,3.90
2022-09-07T11:52:32.879Z,6.10
2022-09-07T11:59:07.932Z,4.40
2022-09-07T12:05:13.132Z,5.43
2022-09-07T12:11:22.594Z,3.97
2022-09-07T12:17:36.755Z,4.30
2022-09-07T12:23:31.915Z,4.03
2022-09-07T12:29:26.941Z,4.47
2022-09-07T12:35:40.826Z,4.80
2022-09-07T12:48:26.952Z,4.30
2022-09-07T12:54:28.905Z,4.70
2022-09-07T13:00:25.549Z,4.03
2022-09-07T13:13:02.843Z,5.03
2022-09-07T13:18:56.088Z,5.03
2022-09-07T13:24:50.766Z,5.40
2022-09-07T13:30:54.212Z,4.27
2022-09-07T13:36:50.286Z,5.07
2022-09-07T13:42:45.452Z,4.70
2022-09-07T13:48:46.593Z,4.73
2022-09-07T13:54:53.552Z,4.60
2022-09-07T14:00:54.492Z,4.43
2022-09-07T14:06:48.901Z,5.07
2022-09-07T14:12:49.922Z,4.27
2022-09-07T14:18:44.071Z,4.63
2022-09-07T14:24:41.697Z,5.00
2022-09-07T14:30:35.128Z,3.80
2022-09-07T14:36:44.836Z,5.27
2022-09-07T14:42:43.721Z,5.17
2022-09-07T14:48:40.455Z,4.47
2022-09-07T14:54:35.719Z,6.53
2022-09-07T15:00:33.205Z,6.13
2022-09-07T15:12:50.294Z,3.80
2022-09-07T15:18:55.646Z,4.60
2022-09-07T15:24:49.158Z,5.23
2022-09-07T15:30:42.302Z,5.00
2022-09-07T15:36:37.066Z,5.17
2022-09-07T15:48:52.185Z,4.90
2022-09-07T15:54:46.853Z,5.53
2022-09-07T16:00:40.032Z,5.60
2022-09-07T16:06:35.851Z,4.60
2022-09-07T16:18:46.962Z,5.50
2022-09-07T16:24:40.576Z,8.20
2022-09-07T16:30:35.345Z,7.37
2022-09-07T16:36:28.367Z,6.73
2022-09-07T16:42:21.700Z,10.40
2022-09-07T16:48:17.242Z,7.00
2022-09-07T16:54:12.787Z,10.73
2022-09-07T17:00:06.989Z,7.63
2022-09-07T17:06:03.757Z,9.27
2022-09-07T17:11:57.087Z,8.60
2022-09-07T17:17:50.369Z,9.93
2022-09-07T17:23:51.894Z,8.83
2022-09-07T17:29:48.791Z,9.40
2022-09-07T17:35:42.180Z,8.00
2022-09-07T17:41:36.666Z,10.20
2022-09-07T17:47:29.975Z,16.13
2022-09-07T17:53:23.244Z,9.90
2022-09-07T18:05:31.729Z,15.80
2022-09-07T18:17:39.390Z,14.70
2022-09-07T18:23:32.688Z,9.80
2022-09-07T18:29:29.886Z,11.30
2022-09-07T18:35:27.656Z,11.40
2022-09-07T18:41:21.358Z,17.53
2022-09-07T18:47:21.639Z,7.93
2022-09-07T18:53:18.086Z,8.20
2022-09-07T18:59:13.795Z,8.70
2022-09-07T19:11:25.186Z,9.03
2022-09-07T19:17:18.430Z,8.87
2022-09-07T19:23:11.388Z,7.50
2022-09-07T19:29:15.277Z,12.27
2022-09-07T19:35:09.178Z,8.93
2022-09-07T19:41:03.228Z,10.03
2022-09-07T19:46:57.747Z,8.90
2022-09-07T19:52:51.274Z,8.00
2022-09-07T19:58:46.458Z,8.27
2022-09-07T20:04:41.067Z,8.33
2022-09-07T20:10:35.254Z,8.43
2022-09-07T20:16:29.334Z,8.70
2022-09-07T20:22:24.070Z,8.60
2022-09-07T20:28:17.313Z,9.23
2022-09-07T20:34:10.853Z,8.00
2022-09-07T20:40:06.668Z,9.43
2022-09-07T20:46:01.164Z,7.87
2022-09-07T20:51:54.471Z,8.43
2022-09-07T20:57:49.033Z,8.60
2022-09-07T21:03:49.236Z,13.57
2022-09-07T21:09:42.869Z,8.60
2022-09-07T21:15:39.792Z,8.93
2022-09-07T21:21:38.982Z,9.33
2022-09-07T21:27:38.589Z,11.10
2022-09-07T21:33:35.525Z,10.80
2022-09-07T21:39:28.788Z,9.67
2022-09-07T21:45:22.455Z,9.30
2022-09-07T21:51:17.330Z,9.20
2022-09-07T21:57:10.142Z,9.33
2022-09-07T22:03:03.384Z,9.37
2022-09-07T22:08:58.989Z,13.57
2022-09-07T22:14:52.204Z,11.40
2022-09-07T22:20:45.475Z,10.70
2022-09-07T22:26:40.317Z,10.53
2022-09-07T22:32:33.898Z,10.60
2022-09-07T22:38:27.118Z,11.23
2022-09-07T22:44:21.818Z,12.43
2022-09-07T22:50:15.149Z,12.17
2022-09-07T22:56:09.517Z,10.80
2022-09-07T23:02:03.706Z,12.63
2022-09-07T23:07:56.988Z,11.53
2022-09-07T23:13:53.354Z,11.53
2022-09-07T23:19:48.695Z,11.53
2022-09-07T23:25:43.642Z,10.87
2022-09-07T23:31:37.287Z,11.43
2022-09-07T23:37:33.000Z,11.30
2022-09-07T23:43:28.030Z,11.97
2022-09-07T23:49:21.092Z,11.40
2022-09-07T23:55:15.348Z,11.70
